sensor_id;sensor_type;location;lat;lon;timestamp;temperature;humidity
24478;DHT22;17860;50.846;5.714;2023-04-03T11:45:38;12.80;93.60
24478;DHT22;17860;50.846;5.714;2023-04-03T11:48:06;13.90;94.80
24478;DHT22;17860;50.846;5.714;2023-04-03T11:50:47;13.60;90.80
24478;DHT22;17860;50.846;5.714;2023-04-03T11:53:31;13.70;91.20
24478;DHT22;17860;50.846;5.714;2023-04-03T11:56:28;13.70;90.70
24478;DHT22;17860;50.846;5.714;2023-04-03T11:59:23;13.60;92.60
24478;DHT22;17860;50.846;5.714;2023-04-03T12:01:53;14.10;92.80
24478;DHT22;17860;50.846;5.714;2023-04-03T12:04:23;15.00;92.30
24478;DHT22;17860;50.846;5.714;2023-04-03T12:07:11;13.90;89.30
24478;DHT22;17860;50.846;5.714;2023-04-03T12:10:16;13.70;91.50
24478;DHT22;17860;50.846;5.714;2023-04-03T12:12:56;13.40;89.50
24478;DHT22;17860;50.846;5.714;2023-04-03T12:15:52;13.40;92.50
24478;DHT22;17860;50.846;5.714;2023-04-03T12:19:00;12.90;90.60
24478;DHT22;17860;50.846;5.714;2023-04-03T12:22:07;13.20;92.10
24478;DHT22;17860;50.846;5.714;2023-04-03T12:24:36;13.90;90.80
24478;DHT22;17860;50.846;5.714;2023-04-03T12:27:28;13.70;90.40
24478;DHT22;17860;50.846;5.714;2023-04-03T12:30:04;14.20;92.10
24478;DHT22;17860;50.846;5.714;2023-04-03T12:32:48;13.70;92.30
24478;DHT22;17860;50.846;5.714;2023-04-03T12:35:27;13.40;91.50
24478;DHT22;17860;50.846;5.714;2023-04-03T12:41:11;13.50;91.30
24478;DHT22;17860;50.846;5.714;2023-04-03T12:43:54;14.20;93.50
24478;DHT22;17860;50.846;5.714;2023-04-03T12:46:33;13.50;90.70
24478;DHT22;17860;50.846;5.714;2023-04-03T12:49:17;13.40;91.10
24478;DHT22;17860;50.846;5.714;2023-04-03T12:51:49;13.90;92.60
24478;DHT22;17860;50.846;5.714;2023-04-03T12:54:20;13.80;90.80
24478;DHT22;17860;50.846;5.714;2023-04-03T12:56:49;13.50;91.70
24478;DHT22;17860;50.846;5.714;2023-04-03T12:59:19;13.20;91.40
24478;DHT22;17860;50.846;5.714;2023-04-03T13:01:53;13.80;92.40
24478;DHT22;17860;50.846;5.714;2023-04-03T13:04:21;13.50;92.20
24478;DHT22;17860;50.846;5.714;2023-04-03T13:06:50;12.90;91.60
24478;DHT22;17860;50.846;5.714;2023-04-03T13:09:20;13.40;91.70
24478;DHT22;17860;50.846;5.714;2023-04-03T13:11:49;13.20;90.90
24478;DHT22;17860;50.846;5.714;2023-04-03T13:14:20;13.50;91.80
24478;DHT22;17860;50.846;5.714;2023-04-03T13:16:54;13.10;92.60
24478;DHT22;17860;50.846;5.714;2023-04-03T13:19:24;13.50;93.00
24478;DHT22;17860;50.846;5.714;2023-04-03T13:21:58;13.50;93.20
24478;DHT22;17860;50.846;5.714;2023-04-03T13:24:26;13.70;93.70
24478;DHT22;17860;50.846;5.714;2023-04-03T13:26:55;13.60;90.60
24478;DHT22;17860;50.846;5.714;2023-04-03T13:29:25;13.30;91.60
24478;DHT22;17860;50.846;5.714;2023-04-03T13:31:54;13.20;90.40
24478;DHT22;17860;50.846;5.714;2023-04-03T13:34:24;13.80;90.40
24478;DHT22;17860;50.846;5.714;2023-04-03T13:37:00;13.10;90.50
24478;DHT22;17860;50.846;5.714;2023-04-03T13:39:30;13.80;91.20
24478;DHT22;17860;50.846;5.714;2023-04-03T13:41:59;13.90;88.90
24478;DHT22;17860;50.846;5.714;2023-04-03T13:44:31;13.00;89.60
24478;DHT22;17860;50.846;5.714;2023-04-03T13:47:00;13.80;91.10
24478;DHT22;17860;50.846;5.714;2023-04-03T13:49:30;13.90;91.00
24478;DHT22;17860;50.846;5.714;2023-04-03T13:52:00;14.00;91.30
24478;DHT22;17860;50.846;5.714;2023-04-03T13:54:29;13.60;90.60
24478;DHT22;17860;50.846;5.714;2023-04-03T13:56:59;13.00;90.30
24478;DHT22;17860;50.846;5.714;2023-04-03T13:59:29;13.00;90.50
24478;DHT22;17860;50.846;5.714;2023-04-03T14:02:09;13.20;91.70
24478;DHT22;17860;50.846;5.714;2023-04-03T14:04:47;13.40;91.00
24478;DHT22;17860;50.846;5.714;2023-04-03T14:07:17;13.00;92.80
24478;DHT22;17860;50.846;5.714;2023-04-03T14:09:45;13.60;90.10
24478;DHT22;17860;50.846;5.714;2023-04-03T14:12:15;12.90;87.80
24478;DHT22;17860;50.846;5.714;2023-04-03T14:14:43;12.40;89.60
24478;DHT22;17860;50.846;5.714;2023-04-03T14:17:15;12.70;90.90
24478;DHT22;17860;50.846;5.714;2023-04-03T14:19:43;13.10;90.00
24478;DHT22;17860;50.846;5.714;2023-04-03T14:22:15;12.90;88.60
24478;DHT22;17860;50.846;5.714;2023-04-03T14:24:44;12.70;85.80
24478;DHT22;17860;50.846;5.714;2023-04-03T14:27:16;12.40;85.40
24478;DHT22;17860;50.846;5.714;2023-04-03T14:29:44;12.40;86.10
24478;DHT22;17860;50.846;5.714;2023-04-03T14:32:13;13.10;89.40
24478;DHT22;17860;50.846;5.714;2023-04-03T14:34:40;13.10;85.20
24478;DHT22;17860;50.846;5.714;2023-04-03T14:37:11;13.40;89.60
24478;DHT22;17860;50.846;5.714;2023-04-03T14:39:38;13.80;87.00
24478;DHT22;17860;50.846;5.714;2023-04-03T14:42:12;14.10;89.60
24478;DHT22;17860;50.846;5.714;2023-04-03T14:44:40;13.50;82.10
24478;DHT22;17860;50.846;5.714;2023-04-03T14:47:10;13.80;83.60
24478;DHT22;17860;50.846;5.714;2023-04-03T14:49:38;13.00;81.50
24478;DHT22;17860;50.846;5.714;2023-04-03T14:52:06;12.60;83.30
24478;DHT22;17860;50.846;5.714;2023-04-03T14:54:33;13.30;89.60
24478;DHT22;17860;50.846;5.714;2023-04-03T14:57:01;12.90;83.20
24478;DHT22;17860;50.846;5.714;2023-04-03T14:59:31;12.90;84.80
24478;DHT22;17860;50.846;5.714;2023-04-03T15:01:58;13.20;83.40
24478;DHT22;17860;50.846;5.714;2023-04-03T15:04:26;13.40;85.20
24478;DHT22;17860;50.846;5.714;2023-04-03T15:06:53;13.40;81.10
24478;DHT22;17860;50.846;5.714;2023-04-03T15:09:22;13.50;85.30
24478;DHT22;17860;50.846;5.714;2023-04-03T15:11:50;13.10;81.00
24478;DHT22;17860;50.846;5.714;2023-04-03T15:14:19;13.00;82.20
24478;DHT22;17860;50.846;5.714;2023-04-03T15:16:48;12.60;83.40
24478;DHT22;17860;50.846;5.714;2023-04-03T15:19:15;12.80;80.70
24478;DHT22;17860;50.846;5.714;2023-04-03T15:21:42;13.10;82.10
24478;DHT22;17860;50.846;5.714;2023-04-03T15:24:10;12.30;81.30
24478;DHT22;17860;50.846;5.714;2023-04-03T15:26:37;11.70;80.50
24478;DHT22;17860;50.846;5.714;2023-04-03T15:29:05;11.70;80.00
24478;DHT22;17860;50.846;5.714;2023-04-03T15:31:32;11.80;81.40
24478;DHT22;17860;50.846;5.714;2023-04-03T15:34:01;12.00;82.80
24478;DHT22;17860;50.846;5.714;2023-04-03T15:36:29;12.30;81.80
24478;DHT22;17860;50.846;5.714;2023-04-03T15:38:56;12.70;84.80
24478;DHT22;17860;50.846;5.714;2023-04-03T15:41:23;12.30;81.90
24478;DHT22;17860;50.846;5.714;2023-04-03T15:43:51;12.70;84.20
24478;DHT22;17860;50.846;5.714;2023-04-03T15:46:18;13.00;82.10
24478;DHT22;17860;50.846;5.714;2023-04-03T15:48:45;12.60;83.60
24478;DHT22;17860;50.846;5.714;2023-04-03T15:51:14;12.40;80.10
24478;DHT22;17860;50.846;5.714;2023-04-03T15:53:41;12.30;82.30
24478;DHT22;17860;50.846;5.714;2023-04-03T15:56:09;12.60;82.00
24478;DHT22;17860;50.846;5.714;2023-04-03T15:58:37;12.70;84.20
24478;DHT22;17860;50.846;5.714;2023-04-03T16:01:05;12.80;81.00
24478;DHT22;17860;50.846;5.714;2023-04-03T16:03:33;12.70;81.10
24478;DHT22;17860;50.846;5.714;2023-04-03T16:06:01;12.20;81.30
24478;DHT22;17860;50.846;5.714;2023-04-03T16:08:29;12.60;81.40
24478;DHT22;17860;50.846;5.714;2023-04-03T16:10:57;12.40;81.40
24478;DHT22;17860;50.846;5.714;2023-04-03T16:13:24;12.70;82.70
24478;DHT22;17860;50.846;5.714;2023-04-03T16:15:51;12.50;82.20
24478;DHT22;17860;50.846;5.714;2023-04-03T16:18:19;12.90;86.20
24478;DHT22;17860;50.846;5.714;2023-04-03T16:20:46;12.80;83.60
24478;DHT22;17860;50.846;5.714;2023-04-03T16:23:14;12.50;81.20
24478;DHT22;17860;50.846;5.714;2023-04-03T16:25:43;12.30;82.80
24478;DHT22;17860;50.846;5.714;2023-04-03T16:28:11;12.50;81.80
24478;DHT22;17860;50.846;5.714;2023-04-03T16:30:39;12.60;84.00
24478;DHT22;17860;50.846;5.714;2023-04-03T16:33:07;12.80;83.50
24478;DHT22;17860;50.846;5.714;2023-04-03T16:35:35;12.50;83.50
24478;DHT22;17860;50.846;5.714;2023-04-03T16:38:02;12.40;84.70
24478;DHT22;17860;50.846;5.714;2023-04-03T16:40:30;12.70;83.30
24478;DHT22;17860;50.846;5.714;2023-04-03T16:43:01;12.50;85.00
24478;DHT22;17860;50.846;5.714;2023-04-03T16:45:28;12.00;85.50
24478;DHT22;17860;50.846;5.714;2023-04-03T16:47:55;11.80;86.90
24478;DHT22;17860;50.846;5.714;2023-04-03T16:50:23;11.80;87.40
24478;DHT22;17860;50.846;5.714;2023-04-03T16:52:50;12.00;87.00
24478;DHT22;17860;50.846;5.714;2023-04-03T16:55:17;11.70;85.90
24478;DHT22;17860;50.846;5.714;2023-04-03T16:57:46;11.90;88.60
24478;DHT22;17860;50.846;5.714;2023-04-03T17:00:16;12.00;87.60
24478;DHT22;17860;50.846;5.714;2023-04-03T17:02:43;11.50;88.50
24478;DHT22;17860;50.846;5.714;2023-04-03T17:05:10;11.30;89.50
24478;DHT22;17860;50.846;5.714;2023-04-03T17:07:37;11.10;89.40
24478;DHT22;17860;50.846;5.714;2023-04-03T17:10:06;11.20;90.80
24478;DHT22;17860;50.846;5.714;2023-04-03T17:12:33;10.90;89.40
24478;DHT22;17860;50.846;5.714;2023-04-03T17:15:01;10.90;90.70
24478;DHT22;17860;50.846;5.714;2023-04-03T17:17:31;10.90;91.00
24478;DHT22;17860;50.846;5.714;2023-04-03T17:19:58;10.80;90.60
24478;DHT22;17860;50.846;5.714;2023-04-03T17:22:26;10.50;91.80
24478;DHT22;17860;50.846;5.714;2023-04-03T17:24:54;10.40;92.70
24478;DHT22;17860;50.846;5.714;2023-04-03T17:27:22;10.00;92.20
24478;DHT22;17860;50.846;5.714;2023-04-03T17:29:49;9.40;92.70
24478;DHT22;17860;50.846;5.714;2023-04-03T17:32:16;9.10;93.00
24478;DHT22;17860;50.846;5.714;2023-04-03T17:34:47;8.80;93.80
24478;DHT22;17860;50.846;5.714;2023-04-03T17:37:14;8.60;93.90
24478;DHT22;17860;50.846;5.714;2023-04-03T17:39:41;8.40;94.60
24478;DHT22;17860;50.846;5.714;2023-04-03T17:42:09;8.30;94.50
24478;DHT22;17860;50.846;5.714;2023-04-03T17:44:36;8.10;94.80
24478;DHT22;17860;50.846;5.714;2023-04-03T17:47:03;8.00;97.20
24478;DHT22;17860;50.846;5.714;2023-04-03T17:49:31;7.90;96.30
24478;DHT22;17860;50.846;5.714;2023-04-03T17:51:59;7.80;96.40
24478;DHT22;17860;50.846;5.714;2023-04-03T17:54:26;7.70;97.30
24478;DHT22;17860;50.846;5.714;2023-04-03T17:56:53;7.60;97.90
24478;DHT22;17860;50.846;5.714;2023-04-03T17:59:20;7.60;97.90
24478;DHT22;17860;50.846;5.714;2023-04-03T18:01:48;7.50;99.40
24478;DHT22;17860;50.846;5.714;2023-04-03T18:04:15;7.50;98.40
24478;DHT22;17860;50.846;5.714;2023-04-03T18:06:44;7.40;99.10
24478;DHT22;17860;50.846;5.714;2023-04-03T18:09:16;7.30;99.80
24478;DHT22;17860;50.846;5.714;2023-04-03T18:11:45;7.10;99.90
24478;DHT22;17860;50.846;5.714;2023-04-03T18:14:16;6.90;99.90
24478;DHT22;17860;50.846;5.714;2023-04-03T18:16:45;6.90;99.90
24478;DHT22;17860;50.846;5.714;2023-04-03T18:19:13;6.90;99.90
24478;DHT22;17860;50.846;5.714;2023-04-03T18:21:40;6.80;99.90
24478;DHT22;17860;50.846;5.714;2023-04-03T18:24:11;6.80;99.90
24478;DHT22;17860;50.846;5.714;2023-04-03T18:26:41;6.60;99.90
24478;DHT22;17860;50.846;5.714;2023-04-03T18:29:12;6.70;99.90
